createdAt,value
2023-05-05T00:00:52.748Z,95451.00
2023-05-05T00:01:52.738Z,95455.00
2023-05-05T00:02:52.777Z,95455.00
2023-05-05T00:03:52.778Z,95451.00
2023-05-05T00:04:52.651Z,95451.00
2023-05-05T00:05:52.644Z,95451.00
2023-05-05T00:06:53.590Z,95453.00
2023-05-05T00:07:52.625Z,95451.00
2023-05-05T00:08:52.619Z,95451.00
2023-05-05T00:09:52.608Z,95451.00
2023-05-05T00:10:52.636Z,95451.00
2023-05-05T00:11:52.617Z,95451.00
2023-05-05T00:12:52.681Z,95453.00
2023-05-05T00:13:52.577Z,95453.00
2023-05-05T00:14:52.567Z,95451.00
2023-05-05T00:15:52.567Z,95455.00
2023-05-05T00:16:52.596Z,95455.00
2023-05-05T00:17:52.667Z,95457.00
2023-05-05T00:18:52.545Z,95455.00
2023-05-05T00:19:52.531Z,95453.00
2023-05-05T00:20:52.525Z,95451.00
2023-05-05T00:21:52.520Z,95451.00
2023-05-05T00:22:52.519Z,95453.00
2023-05-05T00:23:52.508Z,95455.00
2023-05-05T00:24:52.495Z,95451.00
2023-05-05T00:25:52.480Z,95451.00
2023-05-05T00:26:52.533Z,95449.00
2023-05-05T00:27:52.474Z,95449.00
2023-05-05T00:28:52.474Z,95451.00
2023-05-05T00:29:52.455Z,95451.00
2023-05-05T00:30:52.512Z,95453.00
2023-05-05T00:31:52.466Z,95455.00
2023-05-05T00:32:52.518Z,95455.00
2023-05-05T00:33:52.496Z,95453.00
2023-05-05T00:34:52.520Z,95451.00
2023-05-05T00:35:52.539Z,95455.00
2023-05-05T00:36:52.527Z,95457.00
2023-05-05T00:37:52.566Z,95457.00
2023-05-05T00:38:52.565Z,95459.00
2023-05-05T00:39:52.598Z,95459.00
2023-05-05T00:40:52.616Z,95459.00
2023-05-05T00:41:52.666Z,95457.00
2023-05-05T00:42:52.678Z,95457.00
2023-05-05T00:43:52.650Z,95457.00
2023-05-05T00:44:52.643Z,95457.00
2023-05-05T00:45:52.661Z,95457.00
2023-05-05T00:46:52.696Z,95457.00
2023-05-05T00:47:52.729Z,95457.00
2023-05-05T00:48:52.703Z,95457.00
2023-05-05T00:49:52.672Z,95455.00
2023-05-05T00:50:52.674Z,95455.00
2023-05-05T00:51:52.646Z,95455.00
2023-05-05T00:52:52.708Z,95457.00
2023-05-05T00:53:52.673Z,95453.00
2023-05-05T00:54:52.695Z,95451.00
2023-05-05T00:55:52.688Z,95451.00
2023-05-05T00:56:52.672Z,95451.00
2023-05-05T00:57:52.681Z,95453.00
2023-05-05T00:58:52.713Z,95451.00
2023-05-05T00:59:52.751Z,95453.00
2023-05-05T01:00:52.793Z,95453.00
2023-05-05T01:01:52.798Z,95453.00
2023-05-05T01:02:52.982Z,95453.00
2023-05-05T01:03:52.982Z,95455.00
2023-05-05T01:04:52.789Z,95451.00
2023-05-05T01:05:52.818Z,95453.00
2023-05-05T01:06:52.815Z,95451.00
2023-05-05T01:07:52.828Z,95451.00
2023-05-05T01:08:52.844Z,95449.00
2023-05-05T01:10:01.026Z,95447.00
2023-05-05T01:10:52.917Z,95449.00
2023-05-05T01:11:52.846Z,95449.00
2023-05-05T01:12:52.899Z,95449.00
2023-05-05T01:13:52.839Z,95451.00
2023-05-05T01:14:52.852Z,95451.00
2023-05-05T01:15:52.838Z,95453.00
2023-05-05T01:16:52.808Z,95451.00
2023-05-05T01:17:52.864Z,95453.00
2023-05-05T01:18:52.796Z,95453.00
2023-05-05T01:19:52.786Z,95453.00
2023-05-05T01:20:52.785Z,95451.00
2023-05-05T01:21:52.777Z,95451.00
2023-05-05T01:22:52.777Z,95453.00
2023-05-05T01:23:52.768Z,95455.00
2023-05-05T01:24:52.753Z,95457.00
2023-05-05T01:25:52.770Z,95455.00
2023-05-05T01:26:52.751Z,95453.00
2023-05-05T01:27:52.734Z,95451.00
2023-05-05T01:28:52.739Z,95455.00
2023-05-05T01:29:52.720Z,95453.00
2023-05-05T01:30:52.758Z,95455.00
2023-05-05T01:31:52.725Z,95455.00
2023-05-05T01:32:52.759Z,95457.00
2023-05-05T01:33:52.693Z,95455.00
2023-05-05T01:34:52.681Z,95457.00
2023-05-05T01:35:52.693Z,95455.00
2023-05-05T01:36:52.686Z,95459.00
2023-05-05T01:37:52.684Z,95457.00
2023-05-05T01:38:52.656Z,95457.00
2023-05-05T01:39:52.646Z,95455.00
2023-05-05T01:40:52.661Z,95455.00
2023-05-05T01:41:52.632Z,95455.00
2023-05-05T01:42:52.629Z,95455.00
2023-05-05T01:43:52.624Z,95455.00
2023-05-05T01:44:52.616Z,95457.00
2023-05-05T01:45:52.629Z,95457.00
2023-05-05T01:46:52.619Z,95459.00
2023-05-05T01:47:52.674Z,95459.00
2023-05-05T01:48:52.583Z,95461.00
2023-05-05T01:49:52.617Z,95461.00
2023-05-05T01:50:52.614Z,95463.00
2023-05-05T01:51:52.560Z,95463.00
2023-05-05T01:52:52.548Z,95465.00
2023-05-05T01:53:52.548Z,95465.00
2023-05-05T01:54:52.533Z,95469.00
2023-05-05T01:55:52.527Z,95465.00
2023-05-05T01:56:52.516Z,95467.00
2023-05-05T01:57:52.517Z,95469.00
2023-05-05T01:58:52.505Z,95469.00
2023-05-05T01:59:52.508Z,95467.00
2023-05-05T02:00:52.498Z,95469.00
2023-05-05T02:01:52.481Z,95469.00
2023-05-05T02:02:52.568Z,95471.00
2023-05-05T02:03:52.470Z,95473.00
2023-05-05T02:04:52.469Z,95471.00
2023-05-05T02:05:52.457Z,95471.00
2023-05-05T02:06:52.485Z,95467.00
2023-05-05T02:07:52.441Z,95469.00
2023-05-05T02:08:52.432Z,95471.00
2023-05-05T02:09:52.428Z,95471.00
2023-05-05T02:10:52.461Z,95473.00
2023-05-05T02:11:52.420Z,95473.00
2023-05-05T02:12:52.437Z,95475.00
2023-05-05T02:13:52.442Z,95475.00
2023-05-05T02:14:52.400Z,95471.00
2023-05-05T02:15:52.416Z,95473.00
2023-05-05T02:16:52.391Z,95475.00
2023-05-05T02:17:52.413Z,95477.00
2023-05-05T02:18:52.394Z,95475.00
2023-05-05T02:19:52.375Z,95478.00
2023-05-05T02:20:52.359Z,95478.00
2023-05-05T02:21:52.350Z,95477.00
2023-05-05T02:22:52.341Z,95477.00
2023-05-05T02:23:52.342Z,95478.00
2023-05-05T02:24:52.330Z,95478.00
2023-05-05T02:25:52.334Z,95478.00
2023-05-05T02:26:52.330Z,95477.00
2023-05-05T02:27:52.313Z,95478.00
2023-05-05T02:28:52.303Z,95477.00
2023-05-05T02:29:52.290Z,95478.00
2023-05-05T02:30:52.287Z,95478.00
2023-05-05T02:31:52.519Z,95477.00
2023-05-05T02:32:52.333Z,95477.00
2023-05-05T02:33:52.271Z,95477.00
2023-05-05T02:34:52.286Z,95477.00
2023-05-05T02:35:52.261Z,95477.00
2023-05-05T02:36:52.245Z,95475.00
2023-05-05T02:37:52.235Z,95478.00
2023-05-05T02:38:52.229Z,95480.00
2023-05-05T02:39:52.221Z,95478.00
2023-05-05T02:40:52.245Z,95484.00
2023-05-05T02:41:52.211Z,95480.00
2023-05-05T02:42:52.226Z,95477.00
2023-05-05T02:43:52.203Z,95482.00
2023-05-05T02:44:52.186Z,95482.00
2023-05-05T02:45:52.198Z,95484.00
2023-05-05T02:46:52.273Z,95486.00
2023-05-05T02:47:52.208Z,95486.00
2023-05-05T02:48:52.164Z,95482.00
2023-05-05T02:49:52.155Z,95486.00
2023-05-05T02:50:52.183Z,95486.00
2023-05-05T02:51:52.139Z,95486.00
2023-05-05T02:52:52.137Z,95488.00
2023-05-05T02:53:52.126Z,95490.00
2023-05-05T02:54:52.121Z,95490.00
2023-05-05T02:55:52.120Z,95492.00
2023-05-05T02:56:52.107Z,95494.00
2023-05-05T02:57:52.097Z,95492.00
2023-05-05T02:58:52.094Z,95490.00
2023-05-05T02:59:52.081Z,95492.00
2023-05-05T03:00:52.081Z,95490.00
2023-05-05T03:01:52.160Z,95492.00
2023-05-05T03:02:52.128Z,95492.00
2023-05-05T03:03:52.189Z,95492.00
2023-05-05T03:04:52.041Z,95494.00
2023-05-05T03:05:52.043Z,95492.00
2023-05-05T03:06:52.084Z,95490.00
2023-05-05T03:07:52.022Z,95488.00
2023-05-05T03:08:52.030Z,95486.00
2023-05-05T03:09:52.016Z,95488.00
2023-05-05T03:10:52.012Z,95492.00
2023-05-05T03:11:52.046Z,95494.00
2023-05-05T03:12:52.006Z,95492.00
2023-05-05T03:13:51.986Z,95494.00
2023-05-05T03:14:51.975Z,95494.00
2023-05-05T03:15:51.977Z,95492.00
2023-05-05T03:16:52.042Z,95494.00
2023-05-05T03:17:52.005Z,95492.00
2023-05-05T03:18:51.958Z,95488.00
2023-05-05T03:19:51.957Z,95490.00
2023-05-05T03:20:51.938Z,95490.00
2023-05-05T03:21:51.939Z,95492.00
2023-05-05T03:22:51.944Z,95492.00
2023-05-05T03:23:51.917Z,95492.00
2023-05-05T03:24:51.919Z,95492.00
2023-05-05T03:25:51.949Z,95492.00
2023-05-05T03:26:51.906Z,95494.00
2023-05-05T03:27:51.891Z,95494.00
2023-05-05T03:28:51.878Z,95494.00
2023-05-05T03:29:51.866Z,95494.00
2023-05-05T03:30:51.857Z,95490.00
2023-05-05T03:31:51.898Z,95494.00
2023-05-05T03:32:51.881Z,95492.00
2023-05-05T03:33:51.840Z,95490.00
2023-05-05T03:34:51.836Z,95492.00
2023-05-05T03:35:51.825Z,95492.00
2023-05-05T03:36:51.823Z,95492.00
2023-05-05T03:37:51.818Z,95490.00
2023-05-05T03:38:51.856Z,95494.00
2023-05-05T03:39:51.794Z,95490.00
2023-05-05T03:40:51.800Z,95492.00
2023-05-05T03:41:51.803Z,95490.00
2023-05-05T03:42:51.785Z,95490.00
2023-05-05T03:43:51.777Z,95494.00
2023-05-05T03:44:51.768Z,95490.00
2023-05-05T03:45:51.771Z,95490.00
2023-05-05T03:46:51.750Z,95492.00
2023-05-05T03:47:51.815Z,95492.00
2023-05-05T03:48:51.777Z,95494.00
2023-05-05T03:49:51.729Z,95494.00
2023-05-05T03:50:51.720Z,95494.00
2023-05-05T03:51:51.709Z,95492.00
2023-05-05T03:52:51.699Z,95494.00
2023-05-05T03:53:51.721Z,95496.00
2023-05-05T03:54:51.741Z,95496.00
2023-05-05T03:55:51.695Z,95496.00
2023-05-05T03:56:51.686Z,95496.00
2023-05-05T03:57:51.679Z,95498.00
2023-05-05T03:58:51.661Z,95492.00
2023-05-05T03:59:51.657Z,95494.00
2023-05-05T04:00:51.649Z,95494.00
2023-05-05T04:01:51.651Z,95492.00
2023-05-05T04:02:51.713Z,95490.00
2023-05-05T04:03:51.689Z,95488.00
2023-05-05T04:04:51.621Z,95488.00
2023-05-05T04:05:51.638Z,95486.00
2023-05-05T04:06:51.608Z,95488.00
2023-05-05T04:07:51.608Z,95486.00
2023-05-05T04:08:51.597Z,95488.00
2023-05-05T04:09:51.587Z,95488.00
2023-05-05T04:10:51.607Z,95486.00
2023-05-05T04:11:51.569Z,95488.00
2023-05-05T04:12:51.580Z,95486.00
2023-05-05T04:13:51.561Z,95482.00
2023-05-05T04:14:51.549Z,95480.00
2023-05-05T04:15:51.568Z,95480.00
2023-05-05T04:16:51.556Z,95484.00
2023-05-05T04:17:51.586Z,95484.00
2023-05-05T04:18:51.520Z,95484.00
2023-05-05T04:19:51.516Z,95492.00
2023-05-05T04:20:51.524Z,95492.00
2023-05-05T04:21:51.535Z,95494.00
2023-05-05T04:22:52.878Z,95496.00
2023-05-05T04:23:51.554Z,95496.00
2023-05-05T04:24:51.545Z,95492.00
2023-05-05T04:25:51.552Z,95494.00
2023-05-05T04:26:51.579Z,95496.00
2023-05-05T04:27:51.564Z,95498.00
2023-05-05T04:28:51.562Z,95498.00
2023-05-05T04:29:51.573Z,95504.00
2023-05-05T04:30:51.622Z,95504.00
2023-05-05T04:31:51.590Z,95506.00
2023-05-05T04:32:51.628Z,95506.00
2023-05-05T04:33:51.607Z,95506.00
2023-05-05T04:34:51.611Z,95506.00
2023-05-05T04:35:51.618Z,95508.00
2023-05-05T04:36:51.617Z,95504.00
2023-05-05T04:37:51.618Z,95512.00
2023-05-05T04:38:51.722Z,95508.00
2023-05-05T04:39:51.631Z,95512.00
2023-05-05T04:40:51.639Z,95510.00
2023-05-05T04:41:51.654Z,95506.00
2023-05-05T04:42:51.693Z,95502.00
2023-05-05T04:43:51.671Z,95502.00
2023-05-05T04:44:51.676Z,95502.00
2023-05-05T04:45:51.692Z,95498.00
2023-05-05T04:46:51.797Z,95500.00
2023-05-05T04:47:51.705Z,95504.00
2023-05-05T04:48:51.736Z,95498.00
2023-05-05T04:49:51.716Z,95504.00
2023-05-05T04:50:51.719Z,95498.00
2023-05-05T04:51:51.731Z,95498.00
2023-05-05T04:52:52.762Z,95500.00
2023-05-05T04:53:51.741Z,95500.00
2023-05-05T04:54:51.744Z,95500.00
2023-05-05T04:55:51.752Z,95500.00
2023-05-05T04:56:51.740Z,95500.00
2023-05-05T04:57:51.766Z,95502.00
2023-05-05T04:58:51.773Z,95510.00
2023-05-05T04:59:51.749Z,95510.00
2023-05-05T05:00:51.752Z,95510.00
2023-05-05T05:01:51.787Z,95510.00
2023-05-05T05:02:51.809Z,95510.00
2023-05-05T05:03:51.877Z,95512.00
2023-05-05T05:04:51.774Z,95512.00
2023-05-05T05:05:51.789Z,95510.00
2023-05-05T05:06:51.792Z,95512.00
2023-05-05T05:07:51.808Z,95512.00
2023-05-05T05:08:51.813Z,95508.00
2023-05-05T05:09:51.803Z,95514.00
2023-05-05T05:10:51.800Z,95512.00
2023-05-05T05:11:51.808Z,95518.00
2023-05-05T05:12:52.258Z,95518.00
2023-05-05T05:13:51.825Z,95520.00
2023-05-05T05:14:51.856Z,95520.00
2023-05-05T05:15:51.826Z,95516.00
2023-05-05T05:16:51.919Z,95516.00
2023-05-05T05:17:51.882Z,95522.00
2023-05-05T05:18:51.836Z,95522.00
2023-05-05T05:19:51.820Z,95522.00
2023-05-05T05:20:51.826Z,95518.00
2023-05-05T05:21:52.218Z,95516.00
2023-05-05T05:22:51.841Z,95518.00
2023-05-05T05:23:52.208Z,95518.00
2023-05-05T05:24:51.887Z,95518.00
2023-05-05T05:25:51.863Z,95520.00
2023-05-05T05:26:51.856Z,95520.00
2023-05-05T05:28:02.194Z,95520.00
2023-05-05T05:28:52.217Z,95518.00
2023-05-05T05:29:51.861Z,95520.00
2023-05-05T05:30:51.877Z,95520.00
2023-05-05T05:31:51.862Z,95518.00
2023-05-05T05:32:51.853Z,95514.00
2023-05-05T05:33:51.818Z,95516.00
2023-05-05T05:34:51.802Z,95516.00
2023-05-05T05:35:51.796Z,95518.00
2023-05-05T05:36:51.781Z,95524.00
2023-05-05T05:37:51.818Z,95520.00
2023-05-05T05:38:51.771Z,95524.00
2023-05-05T05:39:51.767Z,95525.00
2023-05-05T05:40:51.769Z,95524.00
2023-05-05T05:41:52.222Z,95524.00
2023-05-05T05:42:51.737Z,95522.00
2023-05-05T05:43:51.734Z,95520.00
2023-05-05T05:44:51.728Z,95522.00
2023-05-05T05:45:51.823Z,95522.00
2023-05-05T05:46:51.747Z,95520.00
2023-05-05T05:47:51.738Z,95524.00
2023-05-05T05:48:51.708Z,95524.00
2023-05-05T05:49:51.686Z,95522.00
2023-05-05T05:50:52.079Z,95522.00
2023-05-05T05:51:52.658Z,95520.00
2023-05-05T05:52:50.764Z,95520.00
2023-05-05T05:53:51.658Z,95524.00
2023-05-05T05:54:51.651Z,95522.00
2023-05-05T05:55:51.649Z,95525.00
2023-05-05T05:56:51.724Z,95525.00
2023-05-05T05:57:51.952Z,95525.00
2023-05-05T05:58:51.618Z,95527.00
2023-05-05T05:59:51.629Z,95525.00
2023-05-05T06:00:59.037Z,95524.00
2023-05-05T06:01:51.724Z,95524.00
2023-05-05T06:04:07.386Z,95524.00
2023-05-05T06:04:59.001Z,95525.00
2023-05-05T06:05:54.772Z,95524.00
2023-05-05T06:06:51.571Z,95522.00
2023-05-05T06:07:52.548Z,95522.00
2023-05-05T06:08:51.731Z,95520.00
2023-05-05T06:10:22.638Z,95520.00
2023-05-05T06:10:54.808Z,95520.00
2023-05-05T06:11:51.736Z,95520.00
2023-05-05T06:12:58.991Z,95522.00
2023-05-05T06:13:54.783Z,95520.00
2023-05-05T06:14:51.521Z,95520.00
2023-05-05T06:17:07.137Z,95516.00
2023-05-05T06:17:58.919Z,95522.00
2023-05-05T06:18:52.477Z,95518.00
2023-05-05T06:19:52.437Z,95516.00
2023-05-05T06:20:51.513Z,95518.00
2023-05-05T06:21:51.473Z,95516.00
2023-05-05T06:22:51.463Z,95516.00
2023-05-05T06:23:51.732Z,95520.00
2023-05-05T06:24:51.439Z,95518.00
2023-05-05T06:25:51.464Z,95518.00
2023-05-05T06:26:51.765Z,95518.00
2023-05-05T06:27:51.439Z,95520.00
2023-05-05T06:28:51.505Z,95518.00
2023-05-05T06:29:51.428Z,95520.00
2023-05-05T06:30:51.409Z,95520.00
2023-05-05T06:31:51.457Z,95518.00
2023-05-05T06:32:51.451Z,95516.00
2023-05-05T06:33:51.381Z,95518.00
2023-05-05T06:34:51.401Z,95516.00
2023-05-05T06:35:51.454Z,95516.00
2023-05-05T06:36:54.608Z,95514.00
2023-05-05T06:37:51.382Z,95514.00
2023-05-05T06:38:51.773Z,95512.00
2023-05-05T06:39:51.383Z,95514.00
2023-05-05T06:40:51.356Z,95514.00
2023-05-05T06:41:52.283Z,95512.00
2023-05-05T06:42:51.331Z,95518.00
2023-05-05T06:43:51.770Z,95512.00
2023-05-05T06:44:51.305Z,95514.00
2023-05-05T06:45:51.518Z,95512.00
2023-05-05T06:46:58.762Z,95512.00
2023-05-05T06:47:51.386Z,95512.00
2023-05-05T06:48:51.750Z,95514.00
2023-05-05T06:49:51.266Z,95514.00
2023-05-05T06:50:51.260Z,95514.00
2023-05-05T06:51:51.353Z,95512.00
2023-05-05T06:52:51.253Z,95514.00
2023-05-05T12:17:38.055Z,95122.00
2023-05-05T12:18:39.008Z,95118.00
2023-05-05T12:19:39.002Z,95120.00
2023-05-05T12:20:38.990Z,95118.00
2023-05-05T12:21:38.987Z,95116.00
2023-05-05T12:22:39.004Z,95112.00
2023-05-05T12:23:38.980Z,95116.00
2023-05-05T12:24:38.957Z,95110.00
2023-05-05T12:25:39.014Z,95112.00
2023-05-05T12:26:38.949Z,95112.00
2023-05-05T12:27:39.191Z,95108.00
2023-05-05T12:28:38.926Z,95110.00
2023-05-05T12:29:38.920Z,95106.00
2023-05-05T12:30:38.957Z,95103.00
2023-05-05T12:31:38.936Z,95098.00
2023-05-05T12:32:38.940Z,95098.00
2023-05-05T12:33:38.989Z,95097.00
2023-05-05T12:34:38.909Z,95095.00
2023-05-05T12:35:38.879Z,95091.00
2023-05-05T12:36:38.894Z,95091.00
2023-05-05T12:37:38.865Z,95089.00
2023-05-05T12:38:38.860Z,95093.00
2023-05-05T12:39:38.853Z,95089.00
2023-05-05T12:40:38.844Z,95089.00
2023-05-05T12:41:38.836Z,95087.00
2023-05-05T12:42:38.823Z,95085.00
2023-05-05T12:43:38.902Z,95089.00
2023-05-05T12:44:38.804Z,95085.00
2023-05-05T12:45:38.803Z,95083.00
2023-05-05T12:46:39.030Z,95081.00
2023-05-05T12:47:38.805Z,95079.00
2023-05-05T12:48:39.204Z,95077.00
2023-05-05T12:49:42.081Z,95075.00
2023-05-05T12:50:39.216Z,95071.00
2023-05-05T12:51:38.767Z,95071.00
2023-05-05T12:52:38.757Z,95067.00
2023-05-05T12:53:38.748Z,95067.00
2023-05-05T12:54:38.743Z,95065.00
2023-05-05T12:55:39.212Z,95059.00
2023-05-05T12:56:38.753Z,95061.00
2023-05-05T12:57:38.726Z,95061.00
2023-05-05T12:58:38.712Z,95057.00
2023-05-05T12:59:38.709Z,95059.00
2023-05-05T13:00:38.702Z,95053.00
2023-05-05T13:01:38.749Z,95053.00
2023-05-05T13:02:38.795Z,95053.00
2023-05-05T13:03:38.732Z,95055.00
2023-05-05T13:04:38.680Z,95051.00
2023-05-05T13:05:38.739Z,95050.00
2023-05-05T13:06:38.710Z,95050.00
2023-05-05T13:07:38.657Z,95050.00
2023-05-05T13:08:38.643Z,95050.00
2023-05-05T13:09:38.651Z,95044.00
2023-05-05T13:10:38.639Z,95044.00
2023-05-05T13:11:38.652Z,95042.00
2023-05-05T13:12:38.662Z,95042.00
2023-05-05T13:13:38.614Z,95040.00
2023-05-05T13:14:38.604Z,95038.00
2023-05-05T13:15:38.679Z,95038.00
2023-05-05T13:16:38.689Z,95032.00
2023-05-05T13:17:38.741Z,95034.00
2023-05-05T13:18:38.699Z,95032.00
2023-05-05T13:19:38.724Z,95032.00
2023-05-05T13:20:38.693Z,95026.00
2023-05-05T13:21:38.868Z,95026.00
2023-05-05T13:22:38.785Z,95024.00
2023-05-05T13:23:38.839Z,95026.00
2023-05-05T13:24:50.641Z,95022.00
2023-05-05T13:25:39.222Z,95018.00
2023-05-05T13:26:39.718Z,95012.00
2023-05-05T13:27:38.823Z,95014.00
2023-05-05T13:28:38.829Z,95014.00
2023-05-05T13:29:38.811Z,95010.00
2023-05-05T13:30:38.810Z,95010.00
2023-05-05T13:31:38.861Z,95006.00
2023-05-05T13:32:38.832Z,95004.00
2023-05-05T13:33:38.790Z,95006.00
2023-05-05T13:34:38.773Z,95003.00
2023-05-05T13:35:38.778Z,95003.00
2023-05-05T13:36:38.763Z,94999.00
2023-05-05T13:37:38.915Z,94995.00
2023-05-05T13:38:38.751Z,94991.00
2023-05-05T13:39:38.739Z,94991.00
2023-05-05T13:40:38.741Z,94989.00
2023-05-05T13:41:38.750Z,94989.00
2023-05-05T13:42:38.716Z,94985.00
2023-05-05T13:43:38.717Z,94987.00
2023-05-05T13:44:38.718Z,94985.00
2023-05-05T13:45:41.208Z,94983.00
2023-05-05T13:46:38.700Z,94981.00
2023-05-05T13:47:38.752Z,94981.00
2023-05-05T13:48:38.668Z,94977.00
2023-05-05T13:49:38.668Z,94973.00
2023-05-05T13:50:38.658Z,94973.00
2023-05-05T13:51:38.649Z,94971.00
2023-05-05T13:52:38.640Z,94969.00
2023-05-05T13:53:38.807Z,94967.00
2023-05-05T13:54:38.618Z,94969.00
2023-05-05T13:55:38.615Z,94969.00
2023-05-05T13:56:38.614Z,94969.00
2023-05-05T13:57:38.610Z,94965.00
2023-05-05T13:58:38.587Z,94964.00
2023-05-05T13:59:38.582Z,94962.00
2023-05-05T14:00:39.357Z,94962.00
2023-05-05T14:01:38.621Z,94957.00
2023-05-05T14:02:38.576Z,94956.00
2023-05-05T14:03:38.604Z,94954.00
2023-05-05T14:04:38.594Z,94950.00
2023-05-05T14:05:38.572Z,94948.00
2023-05-05T14:06:38.581Z,94948.00
2023-05-05T14:07:38.557Z,94946.00
2023-05-05T14:08:38.569Z,94946.00
2023-05-05T14:09:39.362Z,94942.00
2023-05-05T14:10:38.503Z,94940.00
2023-05-05T14:11:38.497Z,94940.00
2023-05-05T14:12:38.549Z,94936.00
2023-05-05T14:13:38.759Z,94936.00
2023-05-05T14:14:38.464Z,94934.00
2023-05-05T14:15:38.465Z,94932.00
2023-05-05T14:16:38.514Z,94930.00
2023-05-05T14:17:38.522Z,94928.00
2023-05-05T14:18:38.437Z,94928.00
2023-05-05T14:19:38.439Z,94932.00
2023-05-05T14:20:38.428Z,94930.00
2023-05-05T14:21:38.426Z,94930.00
2023-05-05T14:22:38.405Z,94926.00
2023-05-05T14:23:38.483Z,94928.00
2023-05-05T14:24:38.500Z,94926.00
2023-05-05T14:25:38.593Z,94924.00
2023-05-05T14:26:38.611Z,94924.00
2023-05-05T14:27:38.594Z,94922.00
2023-05-05T14:28:38.767Z,94924.00
2023-05-05T14:29:38.608Z,94922.00
2023-05-05T14:30:38.610Z,94924.00
2023-05-05T14:31:38.681Z,94924.00
2023-05-05T14:32:38.704Z,94922.00
2023-05-05T14:33:38.718Z,94911.00
2023-05-05T14:34:39.737Z,94907.00
2023-05-05T14:35:38.720Z,94911.00
2023-05-05T14:36:38.734Z,94909.00
2023-05-05T14:37:38.740Z,94909.00
2023-05-05T14:38:38.758Z,94911.00
2023-05-05T14:39:38.795Z,94911.00
2023-05-05T14:40:38.804Z,94911.00
2023-05-05T14:41:38.978Z,94907.00
2023-05-05T14:42:38.935Z,94911.00
2023-05-05T14:43:38.994Z,94907.00
2023-05-05T14:44:39.036Z,94911.00
2023-05-05T14:45:39.113Z,94909.00
2023-05-05T14:46:39.101Z,94907.00
2023-05-05T14:47:39.154Z,94909.00
2023-05-05T14:48:39.165Z,94909.00
2023-05-05T14:49:39.202Z,94907.00
2023-05-05T14:50:39.246Z,94909.00
2023-05-05T14:51:39.285Z,94905.00
2023-05-05T14:52:39.342Z,94905.00
2023-05-05T14:53:39.472Z,94905.00
2023-05-05T14:54:39.483Z,94905.00
2023-05-05T14:55:39.486Z,94905.00
2023-05-05T14:56:39.493Z,94899.00
2023-05-05T14:57:39.710Z,94901.00
2023-05-05T14:58:39.521Z,94901.00
2023-05-05T14:59:39.625Z,94899.00
2023-05-05T15:00:39.637Z,94895.00
2023-05-05T15:01:39.800Z,94897.00
2023-05-05T15:02:39.804Z,94895.00
2023-05-05T15:03:39.903Z,94897.00
2023-05-05T15:04:40.283Z,94895.00
2023-05-05T15:05:39.879Z,94897.00
2023-05-05T15:06:39.865Z,94895.00
2023-05-05T15:07:39.915Z,94891.00
2023-05-05T15:08:39.961Z,94891.00
2023-05-05T15:09:39.990Z,94891.00
2023-05-05T15:10:40.010Z,94893.00
2023-05-05T15:11:40.008Z,94891.00
2023-05-05T15:12:40.058Z,94891.00
2023-05-05T15:13:40.336Z,94887.00
2023-05-05T15:14:40.116Z,94889.00
2023-05-05T15:15:40.183Z,94887.00
2023-05-05T15:16:40.386Z,94891.00
2023-05-05T15:17:40.258Z,94887.00
2023-05-05T15:18:40.292Z,94885.00
2023-05-05T15:19:40.348Z,94885.00
2023-05-05T15:20:40.426Z,94887.00
2023-05-05T15:21:40.462Z,94885.00
2023-05-05T15:22:40.503Z,94885.00
2023-05-05T15:23:40.538Z,94889.00
2023-05-05T15:24:40.620Z,94883.00
2023-05-05T15:25:40.646Z,94883.00
2023-05-05T15:26:40.682Z,94883.00
2023-05-05T15:27:40.760Z,94883.00
2023-05-05T15:28:40.809Z,94881.00
2023-05-05T15:29:40.901Z,94881.00
2023-05-05T15:30:40.930Z,94881.00
2023-05-05T15:31:40.990Z,94883.00
2023-05-05T15:32:41.076Z,94879.00
2023-05-05T15:33:41.034Z,94881.00
2023-05-05T15:34:41.095Z,94883.00
2023-05-05T15:35:41.146Z,94881.00
2023-05-05T15:36:41.193Z,94881.00
2023-05-05T15:37:41.247Z,94877.00
2023-05-05T15:38:41.258Z,94881.00
2023-05-05T15:39:41.253Z,94877.00
2023-05-05T15:40:41.297Z,94879.00
2023-05-05T15:41:41.358Z,94879.00
2023-05-05T15:42:41.418Z,94877.00
2023-05-05T15:43:41.459Z,94875.00
2023-05-05T15:44:41.508Z,94879.00
2023-05-05T15:45:41.685Z,94877.00
2023-05-05T15:46:41.656Z,94873.00
2023-05-05T15:47:41.681Z,94877.00
2023-05-05T15:48:41.693Z,94873.00
2023-05-05T15:49:41.749Z,94872.00
2023-05-05T15:50:41.802Z,94870.00
2023-05-05T15:51:41.850Z,94872.00
2023-05-05T15:52:41.896Z,94870.00
2023-05-05T15:53:41.932Z,94870.00
2023-05-05T15:54:41.997Z,94870.00
2023-05-05T15:55:42.041Z,94868.00
2023-05-05T15:56:42.102Z,94870.00
2023-05-05T15:57:42.156Z,94870.00
2023-05-05T15:58:42.245Z,94868.00
2023-05-05T15:59:42.284Z,94866.00
2023-05-05T16:00:42.337Z,94864.00
2023-05-05T16:01:42.498Z,94868.00
2023-05-05T16:02:42.522Z,94864.00
2023-05-05T16:03:42.578Z,94860.00
2023-05-05T16:04:42.604Z,94862.00
2023-05-05T16:05:42.645Z,94862.00
2023-05-05T16:06:42.671Z,94858.00
2023-05-05T16:07:42.714Z,94858.00
2023-05-05T16:08:42.744Z,94858.00
2023-05-05T16:09:42.749Z,94856.00
2023-05-05T16:10:42.778Z,94854.00
2023-05-05T16:11:42.838Z,94854.00
2023-05-05T16:12:42.928Z,94852.00
2023-05-05T16:13:42.856Z,94852.00
2023-05-05T16:14:42.875Z,94852.00
2023-05-05T16:15:42.895Z,94854.00
2023-05-05T16:16:43.031Z,94850.00
2023-05-05T16:17:43.011Z,94854.00
2023-05-05T16:18:42.958Z,94856.00
2023-05-05T16:19:43.000Z,94854.00
2023-05-05T16:20:43.014Z,94854.00
2023-05-05T16:21:43.064Z,94858.00
2023-05-05T16:22:43.102Z,94860.00
2023-05-05T16:23:43.165Z,94856.00
2023-05-05T16:24:44.368Z,94858.00
2023-05-05T16:25:43.285Z,94858.00
2023-05-05T16:26:43.312Z,94864.00
2023-05-05T16:27:43.308Z,94864.00
2023-05-05T16:28:43.387Z,94866.00
2023-05-05T16:29:43.431Z,94862.00
2023-05-05T16:30:43.474Z,94868.00
2023-05-05T16:31:43.528Z,94866.00
2023-05-05T16:32:43.529Z,94870.00
2023-05-05T16:33:43.545Z,94870.00
2023-05-05T16:34:43.503Z,94870.00
2023-05-05T16:35:43.517Z,94866.00
2023-05-05T16:36:44.445Z,94866.00
2023-05-05T16:37:43.516Z,94866.00
2023-05-05T16:38:43.513Z,94866.00
2023-05-05T16:39:43.571Z,94864.00
2023-05-05T16:40:43.607Z,94866.00
2023-05-05T16:41:43.621Z,94858.00
2023-05-05T16:42:44.673Z,94858.00
2023-05-05T16:43:43.722Z,94858.00
2023-05-05T16:44:43.748Z,94856.00
2023-05-05T16:45:43.796Z,94860.00
2023-05-05T16:46:44.009Z,94860.00
2023-05-05T16:47:43.895Z,94860.00
2023-05-05T16:48:43.894Z,94858.00
2023-05-05T16:49:44.020Z,94858.00
2023-05-05T16:50:43.932Z,94856.00
2023-05-05T16:51:43.950Z,94852.00
2023-05-05T16:52:43.960Z,94852.00
2023-05-05T16:53:43.990Z,94852.00
2023-05-05T16:54:44.005Z,94854.00
2023-05-05T16:55:44.020Z,94850.00
2023-05-05T16:56:44.029Z,94852.00
2023-05-05T16:57:44.043Z,94856.00
2023-05-05T16:58:44.062Z,94854.00
2023-05-05T16:59:44.072Z,94852.00
2023-05-05T17:00:44.085Z,94854.00
2023-05-05T17:01:44.110Z,94856.00
2023-05-05T17:02:44.156Z,94856.00
2023-05-05T17:03:44.138Z,94854.00
2023-05-05T17:04:44.155Z,94856.00
2023-05-05T17:05:44.244Z,94860.00
2023-05-05T17:06:44.141Z,94856.00
2023-05-05T17:07:44.137Z,94858.00
2023-05-05T17:08:44.139Z,94858.00
2023-05-05T17:09:44.798Z,94860.00
2023-05-05T17:10:44.155Z,94860.00